Houlton, Maine
Current Conditions -  °F | °C
As of 5:34 AM on Sunday 26 Oct 2014 (Local Time) from KHUL Reporting Station
Moderate Rain Moderate Rain  
Wind Chill:   Ceiling: 4800
Heat Index:   Visibility: 6mi
Dew Point:   Wind: 10mph
Humidity: 93%   Direction: 140°SE
Pressure: 29.36"   Gusts: NA
Location:  46.13°N, 67.84°W
Report Text: KHUL 260934Z AUTO 14009KT 6SM RA BR FEW012 SCT020 OVC048 06/05 A2936 RMK AO2 P0005 T00610050
Loading
Personal Weather Stations






























Interactive Weather Map
Tropical Storm Tracking
New forecast layout! Learn more

10-Day Weather Forecast

Advertisements
Track Severe Weather on mobile